sensor_id;sensor_type;location;lat;lon;timestamp;temperature;humidity
14798;DHT22;7490;63.708;20.368;2024-01-30T00:01:25;3.80;99.90
14798;DHT22;7490;63.708;20.368;2024-01-30T00:03:50;3.80;99.90
14798;DHT22;7490;63.708;20.368;2024-01-30T00:06:19;3.70;99.90
14798;DHT22;7490;63.708;20.368;2024-01-30T00:08:46;3.70;99.90
14798;DHT22;7490;63.708;20.368;2024-01-30T00:11:14;3.60;99.90
14798;DHT22;7490;63.708;20.368;2024-01-30T00:13:40;3.60;99.90
14798;DHT22;7490;63.708;20.368;2024-01-30T00:16:06;3.60;99.90
14798;DHT22;7490;63.708;20.368;2024-01-30T00:18:32;3.50;99.90
14798;DHT22;7490;63.708;20.368;2024-01-30T00:20:57;3.50;99.90
14798;DHT22;7490;63.708;20.368;2024-01-30T00:23:23;3.40;99.90
14798;DHT22;7490;63.708;20.368;2024-01-30T00:25:50;3.50;99.90
14798;DHT22;7490;63.708;20.368;2024-01-30T00:28:15;3.50;99.90
14798;DHT22;7490;63.708;20.368;2024-01-30T00:30:41;3.50;99.90
14798;DHT22;7490;63.708;20.368;2024-01-30T00:33:07;3.50;99.90
14798;DHT22;7490;63.708;20.368;2024-01-30T00:35:33;3.40;99.90
14798;DHT22;7490;63.708;20.368;2024-01-30T00:37:59;3.50;99.90
14798;DHT22;7490;63.708;20.368;2024-01-30T00:40:24;3.50;99.90
14798;DHT22;7490;63.708;20.368;2024-01-30T00:42:50;3.60;99.90
14798;DHT22;7490;63.708;20.368;2024-01-30T00:45:16;3.60;99.90
14798;DHT22;7490;63.708;20.368;2024-01-30T00:47:43;3.60;99.90
14798;DHT22;7490;63.708;20.368;2024-01-30T00:50:09;3.60;99.90
14798;DHT22;7490;63.708;20.368;2024-01-30T00:52:35;3.60;99.90
14798;DHT22;7490;63.708;20.368;2024-01-30T00:55:01;3.50;99.90
14798;DHT22;7490;63.708;20.368;2024-01-30T00:57:27;3.30;99.90
14798;DHT22;7490;63.708;20.368;2024-01-30T00:59:52;3.20;99.90
14798;DHT22;7490;63.708;20.368;2024-01-30T01:02:18;3.00;99.90
14798;DHT22;7490;63.708;20.368;2024-01-30T01:04:44;2.90;99.90
14798;DHT22;7490;63.708;20.368;2024-01-30T01:07:10;2.80;99.90
14798;DHT22;7490;63.708;20.368;2024-01-30T01:09:36;2.70;99.90
14798;DHT22;7490;63.708;20.368;2024-01-30T01:12:03;2.60;99.90
14798;DHT22;7490;63.708;20.368;2024-01-30T01:14:29;2.50;99.90
14798;DHT22;7490;63.708;20.368;2024-01-30T01:16:55;2.40;99.90
14798;DHT22;7490;63.708;20.368;2024-01-30T01:19:20;2.40;99.90
14798;DHT22;7490;63.708;20.368;2024-01-30T01:21:46;2.30;99.90
14798;DHT22;7490;63.708;20.368;2024-01-30T01:24:12;2.30;99.90
14798;DHT22;7490;63.708;20.368;2024-01-30T01:26:38;2.20;99.90
14798;DHT22;7490;63.708;20.368;2024-01-30T01:29:03;2.20;99.90
14798;DHT22;7490;63.708;20.368;2024-01-30T01:31:36;2.20;99.90
14798;DHT22;7490;63.708;20.368;2024-01-30T01:34:05;2.10;99.90
14798;DHT22;7490;63.708;20.368;2024-01-30T01:36:31;2.20;99.90
14798;DHT22;7490;63.708;20.368;2024-01-30T01:38:57;2.10;99.90
14798;DHT22;7490;63.708;20.368;2024-01-30T01:41:22;2.20;99.90
14798;DHT22;7490;63.708;20.368;2024-01-30T01:43:48;2.20;99.90
14798;DHT22;7490;63.708;20.368;2024-01-30T01:46:14;2.20;99.90
14798;DHT22;7490;63.708;20.368;2024-01-30T01:48:39;2.20;99.90
14798;DHT22;7490;63.708;20.368;2024-01-30T01:51:06;2.20;99.90
14798;DHT22;7490;63.708;20.368;2024-01-30T01:53:32;2.20;99.90
14798;DHT22;7490;63.708;20.368;2024-01-30T01:55:58;2.20;99.90
14798;DHT22;7490;63.708;20.368;2024-01-30T01:58:27;2.30;99.90
14798;DHT22;7490;63.708;20.368;2024-01-30T02:00:54;2.30;99.90
14798;DHT22;7490;63.708;20.368;2024-01-30T02:03:21;2.30;99.90
14798;DHT22;7490;63.708;20.368;2024-01-30T02:05:47;2.30;99.90
14798;DHT22;7490;63.708;20.368;2024-01-30T02:08:12;2.30;99.90
14798;DHT22;7490;63.708;20.368;2024-01-30T02:10:39;2.30;99.90
14798;DHT22;7490;63.708;20.368;2024-01-30T02:13:04;2.40;99.90
14798;DHT22;7490;63.708;20.368;2024-01-30T02:15:30;2.40;99.90
14798;DHT22;7490;63.708;20.368;2024-01-30T02:17:56;2.40;99.90
14798;DHT22;7490;63.708;20.368;2024-01-30T02:20:23;2.40;99.90
14798;DHT22;7490;63.708;20.368;2024-01-30T02:22:51;2.40;99.90
14798;DHT22;7490;63.708;20.368;2024-01-30T02:25:18;2.50;99.90
14798;DHT22;7490;63.708;20.368;2024-01-30T02:27:43;2.50;99.90
14798;DHT22;7490;63.708;20.368;2024-01-30T02:30:09;2.50;99.90
14798;DHT22;7490;63.708;20.368;2024-01-30T02:32:35;2.60;99.90
14798;DHT22;7490;63.708;20.368;2024-01-30T02:35:01;2.60;99.90
14798;DHT22;7490;63.708;20.368;2024-01-30T02:37:26;2.60;99.90
14798;DHT22;7490;63.708;20.368;2024-01-30T02:39:52;2.60;99.90
14798;DHT22;7490;63.708;20.368;2024-01-30T02:42:17;2.50;99.90
14798;DHT22;7490;63.708;20.368;2024-01-30T02:44:43;2.50;99.90
14798;DHT22;7490;63.708;20.368;2024-01-30T02:47:09;2.50;99.90
14798;DHT22;7490;63.708;20.368;2024-01-30T02:49:34;2.40;99.90
14798;DHT22;7490;63.708;20.368;2024-01-30T02:52:00;2.40;99.90
14798;DHT22;7490;63.708;20.368;2024-01-30T02:54:25;2.30;99.90
14798;DHT22;7490;63.708;20.368;2024-01-30T02:56:51;2.30;99.90
14798;DHT22;7490;63.708;20.368;2024-01-30T02:59:17;2.20;99.90
14798;DHT22;7490;63.708;20.368;2024-01-30T03:01:43;2.20;99.90
14798;DHT22;7490;63.708;20.368;2024-01-30T03:04:09;2.20;99.90
14798;DHT22;7490;63.708;20.368;2024-01-30T03:06:35;2.30;99.90
14798;DHT22;7490;63.708;20.368;2024-01-30T03:09:01;2.30;99.90
14798;DHT22;7490;63.708;20.368;2024-01-30T03:11:27;2.30;99.90
14798;DHT22;7490;63.708;20.368;2024-01-30T03:13:52;2.30;99.90
14798;DHT22;7490;63.708;20.368;2024-01-30T03:16:18;2.30;99.90
14798;DHT22;7490;63.708;20.368;2024-01-30T03:18:44;2.30;99.90
14798;DHT22;7490;63.708;20.368;2024-01-30T03:21:09;2.30;99.90
14798;DHT22;7490;63.708;20.368;2024-01-30T03:23:35;2.20;99.90
14798;DHT22;7490;63.708;20.368;2024-01-30T03:26:01;2.30;99.90
14798;DHT22;7490;63.708;20.368;2024-01-30T03:28:26;2.20;99.90
14798;DHT22;7490;63.708;20.368;2024-01-30T03:30:52;2.20;99.90
14798;DHT22;7490;63.708;20.368;2024-01-30T03:33:17;2.20;99.90
14798;DHT22;7490;63.708;20.368;2024-01-30T03:35:43;2.10;99.90
14798;DHT22;7490;63.708;20.368;2024-01-30T03:38:09;2.10;99.90
14798;DHT22;7490;63.708;20.368;2024-01-30T03:40:34;2.10;99.90
14798;DHT22;7490;63.708;20.368;2024-01-30T03:43:00;2.10;99.90
14798;DHT22;7490;63.708;20.368;2024-01-30T03:45:25;2.10;99.90
14798;DHT22;7490;63.708;20.368;2024-01-30T03:47:51;2.10;99.90
14798;DHT22;7490;63.708;20.368;2024-01-30T03:50:17;2.00;99.90
14798;DHT22;7490;63.708;20.368;2024-01-30T03:52:42;2.00;99.90
14798;DHT22;7490;63.708;20.368;2024-01-30T03:55:08;2.00;99.90
14798;DHT22;7490;63.708;20.368;2024-01-30T03:57:33;2.00;99.90
14798;DHT22;7490;63.708;20.368;2024-01-30T03:59:59;2.00;99.90
14798;DHT22;7490;63.708;20.368;2024-01-30T04:02:25;2.00;99.90
14798;DHT22;7490;63.708;20.368;2024-01-30T04:04:50;1.90;99.90
14798;DHT22;7490;63.708;20.368;2024-01-30T04:07:16;2.00;99.90
14798;DHT22;7490;63.708;20.368;2024-01-30T04:09:42;1.90;99.90
14798;DHT22;7490;63.708;20.368;2024-01-30T04:12:07;1.90;99.90
14798;DHT22;7490;63.708;20.368;2024-01-30T04:14:33;1.90;99.90
14798;DHT22;7490;63.708;20.368;2024-01-30T04:16:59;1.90;99.90
14798;DHT22;7490;63.708;20.368;2024-01-30T04:19:24;1.90;99.90
14798;DHT22;7490;63.708;20.368;2024-01-30T04:21:50;1.90;99.90
14798;DHT22;7490;63.708;20.368;2024-01-30T04:24:16;1.80;99.90
14798;DHT22;7490;63.708;20.368;2024-01-30T04:26:44;1.80;99.90
14798;DHT22;7490;63.708;20.368;2024-01-30T04:29:09;1.80;99.90
14798;DHT22;7490;63.708;20.368;2024-01-30T04:31:36;1.70;99.90
14798;DHT22;7490;63.708;20.368;2024-01-30T04:34:02;1.70;99.90
14798;DHT22;7490;63.708;20.368;2024-01-30T04:36:28;1.70;99.90
14798;DHT22;7490;63.708;20.368;2024-01-30T04:38:53;1.60;99.90
14798;DHT22;7490;63.708;20.368;2024-01-30T04:41:19;1.60;99.90
14798;DHT22;7490;63.708;20.368;2024-01-30T04:43:44;1.60;99.90
14798;DHT22;7490;63.708;20.368;2024-01-30T04:46:10;1.50;99.90
14798;DHT22;7490;63.708;20.368;2024-01-30T04:48:36;1.50;99.90
14798;DHT22;7490;63.708;20.368;2024-01-30T04:51:01;1.50;99.90
14798;DHT22;7490;63.708;20.368;2024-01-30T04:53:30;1.40;99.90
14798;DHT22;7490;63.708;20.368;2024-01-30T04:55:56;1.40;99.90
14798;DHT22;7490;63.708;20.368;2024-01-30T04:58:22;1.30;99.90
14798;DHT22;7490;63.708;20.368;2024-01-30T05:00:47;1.30;99.90
14798;DHT22;7490;63.708;20.368;2024-01-30T05:03:17;1.30;99.90
14798;DHT22;7490;63.708;20.368;2024-01-30T05:05:43;1.30;99.90
14798;DHT22;7490;63.708;20.368;2024-01-30T05:08:08;1.20;99.90
14798;DHT22;7490;63.708;20.368;2024-01-30T05:10:34;1.20;99.90
14798;DHT22;7490;63.708;20.368;2024-01-30T05:13:00;1.10;99.90
14798;DHT22;7490;63.708;20.368;2024-01-30T05:15:25;1.10;99.90
14798;DHT22;7490;63.708;20.368;2024-01-30T05:17:51;1.10;99.90
14798;DHT22;7490;63.708;20.368;2024-01-30T05:20:16;1.00;99.90
14798;DHT22;7490;63.708;20.368;2024-01-30T05:22:42;1.10;99.90
14798;DHT22;7490;63.708;20.368;2024-01-30T05:25:11;1.00;99.90
14798;DHT22;7490;63.708;20.368;2024-01-30T05:27:37;1.10;99.90
14798;DHT22;7490;63.708;20.368;2024-01-30T05:30:03;1.00;99.90
14798;DHT22;7490;63.708;20.368;2024-01-30T05:32:29;1.00;99.90
14798;DHT22;7490;63.708;20.368;2024-01-30T05:34:55;1.00;99.90
14798;DHT22;7490;63.708;20.368;2024-01-30T05:37:20;1.00;99.90
14798;DHT22;7490;63.708;20.368;2024-01-30T05:39:46;1.00;99.90
14798;DHT22;7490;63.708;20.368;2024-01-30T05:42:11;1.00;99.90
14798;DHT22;7490;63.708;20.368;2024-01-30T05:44:37;1.10;99.90
14798;DHT22;7490;63.708;20.368;2024-01-30T05:47:03;1.10;99.90
14798;DHT22;7490;63.708;20.368;2024-01-30T05:49:29;1.10;99.90
14798;DHT22;7490;63.708;20.368;2024-01-30T05:51:54;1.10;99.90
14798;DHT22;7490;63.708;20.368;2024-01-30T05:54:20;1.10;99.90
14798;DHT22;7490;63.708;20.368;2024-01-30T05:56:45;1.10;99.90
14798;DHT22;7490;63.708;20.368;2024-01-30T05:59:11;1.20;99.90
14798;DHT22;7490;63.708;20.368;2024-01-30T06:01:37;1.20;99.90
14798;DHT22;7490;63.708;20.368;2024-01-30T06:04:02;1.20;99.90
14798;DHT22;7490;63.708;20.368;2024-01-30T06:06:28;1.30;99.90
14798;DHT22;7490;63.708;20.368;2024-01-30T06:08:54;1.30;99.90
14798;DHT22;7490;63.708;20.368;2024-01-30T06:11:21;1.30;99.90
14798;DHT22;7490;63.708;20.368;2024-01-30T06:13:47;1.30;99.90
14798;DHT22;7490;63.708;20.368;2024-01-30T06:16:12;1.30;99.90
14798;DHT22;7490;63.708;20.368;2024-01-30T06:18:38;1.30;99.90
14798;DHT22;7490;63.708;20.368;2024-01-30T06:21:04;1.30;99.90
14798;DHT22;7490;63.708;20.368;2024-01-30T06:23:30;1.20;99.90
14798;DHT22;7490;63.708;20.368;2024-01-30T06:25:56;1.20;99.90
14798;DHT22;7490;63.708;20.368;2024-01-30T06:28:21;1.20;99.90
14798;DHT22;7490;63.708;20.368;2024-01-30T06:30:47;1.20;99.90
14798;DHT22;7490;63.708;20.368;2024-01-30T06:33:13;1.20;99.90
14798;DHT22;7490;63.708;20.368;2024-01-30T06:35:39;1.30;99.90
14798;DHT22;7490;63.708;20.368;2024-01-30T06:38:06;1.30;99.90
14798;DHT22;7490;63.708;20.368;2024-01-30T06:40:31;1.20;99.90
14798;DHT22;7490;63.708;20.368;2024-01-30T06:42:57;1.30;99.90
14798;DHT22;7490;63.708;20.368;2024-01-30T06:45:23;1.30;99.90
14798;DHT22;7490;63.708;20.368;2024-01-30T06:47:48;1.30;99.90
14798;DHT22;7490;63.708;20.368;2024-01-30T06:50:14;1.30;99.90
14798;DHT22;7490;63.708;20.368;2024-01-30T06:52:39;1.40;99.90
14798;DHT22;7490;63.708;20.368;2024-01-30T06:55:05;1.40;99.90
14798;DHT22;7490;63.708;20.368;2024-01-30T06:57:31;1.40;99.90
14798;DHT22;7490;63.708;20.368;2024-01-30T06:59:57;1.30;99.90
14798;DHT22;7490;63.708;20.368;2024-01-30T07:02:23;1.40;99.90
14798;DHT22;7490;63.708;20.368;2024-01-30T07:04:48;1.30;99.90
14798;DHT22;7490;63.708;20.368;2024-01-30T07:07:14;1.30;99.90
14798;DHT22;7490;63.708;20.368;2024-01-30T07:09:41;1.30;99.90
14798;DHT22;7490;63.708;20.368;2024-01-30T07:12:06;1.30;99.90
14798;DHT22;7490;63.708;20.368;2024-01-30T07:14:33;1.30;99.90
14798;DHT22;7490;63.708;20.368;2024-01-30T07:16:58;1.30;99.90
14798;DHT22;7490;63.708;20.368;2024-01-30T07:19:24;1.30;99.90
14798;DHT22;7490;63.708;20.368;2024-01-30T07:21:49;1.20;99.90
14798;DHT22;7490;63.708;20.368;2024-01-30T07:24:15;1.20;99.90
14798;DHT22;7490;63.708;20.368;2024-01-30T07:26:41;1.10;99.90
14798;DHT22;7490;63.708;20.368;2024-01-30T07:29:06;1.10;99.90
14798;DHT22;7490;63.708;20.368;2024-01-30T07:31:32;1.00;99.90
14798;DHT22;7490;63.708;20.368;2024-01-30T07:33:57;1.00;99.90
14798;DHT22;7490;63.708;20.368;2024-01-30T07:36:23;1.00;99.90
14798;DHT22;7490;63.708;20.368;2024-01-30T07:38:49;1.00;99.90
14798;DHT22;7490;63.708;20.368;2024-01-30T07:41:14;1.00;99.90
14798;DHT22;7490;63.708;20.368;2024-01-30T07:43:40;0.90;99.90
14798;DHT22;7490;63.708;20.368;2024-01-30T07:46:05;1.00;99.90
14798;DHT22;7490;63.708;20.368;2024-01-30T07:48:32;1.00;99.90
14798;DHT22;7490;63.708;20.368;2024-01-30T07:50:59;1.00;99.90
14798;DHT22;7490;63.708;20.368;2024-01-30T07:53:25;1.00;99.90
14798;DHT22;7490;63.708;20.368;2024-01-30T07:55:50;1.10;99.90
14798;DHT22;7490;63.708;20.368;2024-01-30T07:58:16;1.10;99.90
14798;DHT22;7490;63.708;20.368;2024-01-30T08:00:42;1.10;99.90
14798;DHT22;7490;63.708;20.368;2024-01-30T08:03:07;1.10;99.90
14798;DHT22;7490;63.708;20.368;2024-01-30T08:05:33;1.00;99.90
14798;DHT22;7490;63.708;20.368;2024-01-30T08:07:58;1.00;99.90
14798;DHT22;7490;63.708;20.368;2024-01-30T08:10:24;1.10;99.90
14798;DHT22;7490;63.708;20.368;2024-01-30T08:12:50;1.10;99.90
14798;DHT22;7490;63.708;20.368;2024-01-30T08:15:15;1.10;99.90
14798;DHT22;7490;63.708;20.368;2024-01-30T08:17:41;1.10;99.90
14798;DHT22;7490;63.708;20.368;2024-01-30T08:20:07;1.10;99.90
14798;DHT22;7490;63.708;20.368;2024-01-30T08:22:33;1.20;99.90
14798;DHT22;7490;63.708;20.368;2024-01-30T08:24:59;1.20;99.90
14798;DHT22;7490;63.708;20.368;2024-01-30T08:27:25;1.20;99.90
14798;DHT22;7490;63.708;20.368;2024-01-30T08:29:50;1.30;99.90
14798;DHT22;7490;63.708;20.368;2024-01-30T08:32:16;1.30;99.90
14798;DHT22;7490;63.708;20.368;2024-01-30T08:34:42;1.40;99.90
14798;DHT22;7490;63.708;20.368;2024-01-30T08:37:07;1.40;99.90
14798;DHT22;7490;63.708;20.368;2024-01-30T08:39:33;1.50;99.90
14798;DHT22;7490;63.708;20.368;2024-01-30T08:41:59;1.80;99.90
14798;DHT22;7490;63.708;20.368;2024-01-30T08:44:25;2.20;99.90
14798;DHT22;7490;63.708;20.368;2024-01-30T08:46:50;2.50;99.90
14798;DHT22;7490;63.708;20.368;2024-01-30T08:49:16;2.70;99.90
14798;DHT22;7490;63.708;20.368;2024-01-30T08:51:42;2.80;99.90
14798;DHT22;7490;63.708;20.368;2024-01-30T08:54:08;2.80;99.90
14798;DHT22;7490;63.708;20.368;2024-01-30T08:56:33;2.80;99.90
14798;DHT22;7490;63.708;20.368;2024-01-30T08:58:59;2.80;99.90
14798;DHT22;7490;63.708;20.368;2024-01-30T09:01:25;2.70;99.90
14798;DHT22;7490;63.708;20.368;2024-01-30T09:03:51;2.60;99.90
14798;DHT22;7490;63.708;20.368;2024-01-30T09:06:16;2.50;99.90
14798;DHT22;7490;63.708;20.368;2024-01-30T09:08:42;2.40;99.90
14798;DHT22;7490;63.708;20.368;2024-01-30T09:11:15;2.30;99.90
14798;DHT22;7490;63.708;20.368;2024-01-30T09:13:41;2.30;99.90
14798;DHT22;7490;63.708;20.368;2024-01-30T09:16:07;2.30;99.90
14798;DHT22;7490;63.708;20.368;2024-01-30T09:18:33;2.30;99.90
14798;DHT22;7490;63.708;20.368;2024-01-30T09:20:58;2.20;99.90
14798;DHT22;7490;63.708;20.368;2024-01-30T09:23:24;2.20;99.90
14798;DHT22;7490;63.708;20.368;2024-01-30T09:25:50;2.20;99.90
14798;DHT22;7490;63.708;20.368;2024-01-30T09:28:17;2.20;99.90
14798;DHT22;7490;63.708;20.368;2024-01-30T09:30:43;2.20;99.90
14798;DHT22;7490;63.708;20.368;2024-01-30T09:33:08;2.20;99.90
14798;DHT22;7490;63.708;20.368;2024-01-30T09:35:35;2.20;99.90
14798;DHT22;7490;63.708;20.368;2024-01-30T09:38:02;2.30;99.90
14798;DHT22;7490;63.708;20.368;2024-01-30T09:40:28;2.40;99.90
14798;DHT22;7490;63.708;20.368;2024-01-30T09:42:54;2.40;99.90
14798;DHT22;7490;63.708;20.368;2024-01-30T09:45:24;2.40;99.90
14798;DHT22;7490;63.708;20.368;2024-01-30T09:47:49;2.50;99.90
14798;DHT22;7490;63.708;20.368;2024-01-30T09:50:16;2.40;99.90
14798;DHT22;7490;63.708;20.368;2024-01-30T09:52:43;2.30;99.90
14798;DHT22;7490;63.708;20.368;2024-01-30T09:55:10;2.40;99.90
14798;DHT22;7490;63.708;20.368;2024-01-30T09:57:35;2.40;99.90
14798;DHT22;7490;63.708;20.368;2024-01-30T10:00:02;2.90;99.90
14798;DHT22;7490;63.708;20.368;2024-01-30T10:02:31;3.80;99.90
14798;DHT22;7490;63.708;20.368;2024-01-30T10:04:57;4.50;99.90
14798;DHT22;7490;63.708;20.368;2024-01-30T10:07:24;4.90;99.90
14798;DHT22;7490;63.708;20.368;2024-01-30T10:09:49;4.80;99.90
14798;DHT22;7490;63.708;20.368;2024-01-30T10:12:15;4.70;99.90
14798;DHT22;7490;63.708;20.368;2024-01-30T10:14:42;5.00;99.90
14798;DHT22;7490;63.708;20.368;2024-01-30T10:17:12;5.60;99.90
14798;DHT22;7490;63.708;20.368;2024-01-30T10:19:39;6.10;99.90
14798;DHT22;7490;63.708;20.368;2024-01-30T10:22:05;6.60;99.90
14798;DHT22;7490;63.708;20.368;2024-01-30T10:24:32;7.10;99.90
14798;DHT22;7490;63.708;20.368;2024-01-30T10:26:59;7.50;99.90
14798;DHT22;7490;63.708;20.368;2024-01-30T10:29:25;7.80;99.90
14798;DHT22;7490;63.708;20.368;2024-01-30T10:32:02;8.00;99.90
14798;DHT22;7490;63.708;20.368;2024-01-30T10:34:28;8.10;99.90
14798;DHT22;7490;63.708;20.368;2024-01-30T10:39:32;8.10;99.90
14798;DHT22;7490;63.708;20.368;2024-01-30T10:42:04;8.10;99.90
14798;DHT22;7490;63.708;20.368;2024-01-30T10:44:37;8.10;99.90
14798;DHT22;7490;63.708;20.368;2024-01-30T10:47:07;8.20;99.70
14798;DHT22;7490;63.708;20.368;2024-01-30T10:49:37;8.10;98.90
14798;DHT22;7490;63.708;20.368;2024-01-30T10:52:04;7.70;97.70
14798;DHT22;7490;63.708;20.368;2024-01-30T10:54:31;7.30;97.70
14798;DHT22;7490;63.708;20.368;2024-01-30T10:57:00;7.10;98.20
14798;DHT22;7490;63.708;20.368;2024-01-30T10:59:29;7.10;98.80
14798;DHT22;7490;63.708;20.368;2024-01-30T11:01:57;7.20;98.70
14798;DHT22;7490;63.708;20.368;2024-01-30T11:04:24;7.30;98.40
14798;DHT22;7490;63.708;20.368;2024-01-30T11:06:51;7.30;97.70
14798;DHT22;7490;63.708;20.368;2024-01-30T11:09:17;7.20;97.60
14798;DHT22;7490;63.708;20.368;2024-01-30T11:11:58;7.10;97.80
14798;DHT22;7490;63.708;20.368;2024-01-30T11:14:30;7.10;97.50
14798;DHT22;7490;63.708;20.368;2024-01-30T11:16:59;7.00;97.60
14798;DHT22;7490;63.708;20.368;2024-01-30T11:19:25;7.00;97.50
14798;DHT22;7490;63.708;20.368;2024-01-30T11:21:53;6.90;97.60
14798;DHT22;7490;63.708;20.368;2024-01-30T11:24:20;6.90;97.40
14798;DHT22;7490;63.708;20.368;2024-01-30T11:26:50;6.90;97.70
14798;DHT22;7490;63.708;20.368;2024-01-30T11:29:24;6.80;97.50
14798;DHT22;7490;63.708;20.368;2024-01-30T11:31:54;6.70;97.60
14798;DHT22;7490;63.708;20.368;2024-01-30T11:34:20;6.60;97.70
14798;DHT22;7490;63.708;20.368;2024-01-30T11:36:52;6.50;97.90
14798;DHT22;7490;63.708;20.368;2024-01-30T11:39:20;6.50;97.70
14798;DHT22;7490;63.708;20.368;2024-01-30T11:41:49;6.50;97.80
14798;DHT22;7490;63.708;20.368;2024-01-30T11:44:16;6.50;97.80
14798;DHT22;7490;63.708;20.368;2024-01-30T11:46:41;6.40;97.70
14798;DHT22;7490;63.708;20.368;2024-01-30T11:49:07;6.20;97.50
14798;DHT22;7490;63.708;20.368;2024-01-30T11:51:33;5.90;97.40
14798;DHT22;7490;63.708;20.368;2024-01-30T11:53:59;5.50;97.40
14798;DHT22;7490;63.708;20.368;2024-01-30T11:56:25;5.10;97.70
14798;DHT22;7490;63.708;20.368;2024-01-30T11:58:52;4.80;98.10
14798;DHT22;7490;63.708;20.368;2024-01-30T12:01:17;4.50;98.50
14798;DHT22;7490;63.708;20.368;2024-01-30T12:03:49;4.30;99.00
14798;DHT22;7490;63.708;20.368;2024-01-30T12:06:16;4.00;99.30
14798;DHT22;7490;63.708;20.368;2024-01-30T12:08:42;3.80;99.60
14798;DHT22;7490;63.708;20.368;2024-01-30T12:11:07;3.70;99.90
14798;DHT22;7490;63.708;20.368;2024-01-30T12:13:34;3.50;99.90
14798;DHT22;7490;63.708;20.368;2024-01-30T12:16:03;3.40;99.90
14798;DHT22;7490;63.708;20.368;2024-01-30T12:18:28;3.30;99.90
14798;DHT22;7490;63.708;20.368;2024-01-30T12:20:58;3.10;99.90
14798;DHT22;7490;63.708;20.368;2024-01-30T12:23:25;3.00;99.90
14798;DHT22;7490;63.708;20.368;2024-01-30T12:25:52;2.90;99.90
14798;DHT22;7490;63.708;20.368;2024-01-30T12:28:18;2.70;99.90
14798;DHT22;7490;63.708;20.368;2024-01-30T12:30:43;2.70;99.90
14798;DHT22;7490;63.708;20.368;2024-01-30T12:33:09;2.60;99.90
14798;DHT22;7490;63.708;20.368;2024-01-30T12:35:35;2.50;99.90
14798;DHT22;7490;63.708;20.368;2024-01-30T12:38:01;2.40;99.90
14798;DHT22;7490;63.708;20.368;2024-01-30T12:40:27;2.30;99.90
14798;DHT22;7490;63.708;20.368;2024-01-30T12:42:54;2.30;99.90
14798;DHT22;7490;63.708;20.368;2024-01-30T12:45:20;2.20;99.90
14798;DHT22;7490;63.708;20.368;2024-01-30T12:47:47;2.10;99.90
14798;DHT22;7490;63.708;20.368;2024-01-30T12:50:13;2.10;99.90
14798;DHT22;7490;63.708;20.368;2024-01-30T12:52:42;2.00;99.90
14798;DHT22;7490;63.708;20.368;2024-01-30T12:55:07;2.00;99.90
14798;DHT22;7490;63.708;20.368;2024-01-30T12:57:33;2.00;99.90
14798;DHT22;7490;63.708;20.368;2024-01-30T12:59:59;1.90;99.90
14798;DHT22;7490;63.708;20.368;2024-01-30T13:02:24;1.90;99.90
14798;DHT22;7490;63.708;20.368;2024-01-30T13:04:51;1.80;99.90
14798;DHT22;7490;63.708;20.368;2024-01-30T13:07:17;1.80;99.90
14798;DHT22;7490;63.708;20.368;2024-01-30T13:09:43;1.70;99.90
14798;DHT22;7490;63.708;20.368;2024-01-30T13:12:09;1.70;99.90
14798;DHT22;7490;63.708;20.368;2024-01-30T13:14:35;1.60;99.90
14798;DHT22;7490;63.708;20.368;2024-01-30T13:17:00;1.60;99.90
14798;DHT22;7490;63.708;20.368;2024-01-30T13:19:26;1.50;99.90
14798;DHT22;7490;63.708;20.368;2024-01-30T13:21:52;1.50;99.90
14798;DHT22;7490;63.708;20.368;2024-01-30T13:24:18;1.40;99.90
14798;DHT22;7490;63.708;20.368;2024-01-30T13:26:47;1.40;99.90
14798;DHT22;7490;63.708;20.368;2024-01-30T13:29:13;1.30;99.90
14798;DHT22;7490;63.708;20.368;2024-01-30T13:31:38;1.30;99.90
14798;DHT22;7490;63.708;20.368;2024-01-30T13:34:05;1.30;99.90
14798;DHT22;7490;63.708;20.368;2024-01-30T13:36:32;1.20;99.90
14798;DHT22;7490;63.708;20.368;2024-01-30T13:38:58;1.20;99.90
14798;DHT22;7490;63.708;20.368;2024-01-30T13:41:23;1.10;99.90
14798;DHT22;7490;63.708;20.368;2024-01-30T13:43:49;1.00;99.90
14798;DHT22;7490;63.708;20.368;2024-01-30T13:46:15;1.00;99.90
14798;DHT22;7490;63.708;20.368;2024-01-30T13:48:40;0.90;99.90
14798;DHT22;7490;63.708;20.368;2024-01-30T13:51:06;0.90;99.90
14798;DHT22;7490;63.708;20.368;2024-01-30T13:53:31;0.80;99.90
14798;DHT22;7490;63.708;20.368;2024-01-30T13:55:57;0.80;99.90
14798;DHT22;7490;63.708;20.368;2024-01-30T13:58:23;0.80;99.90
14798;DHT22;7490;63.708;20.368;2024-01-30T14:00:48;0.70;99.90
14798;DHT22;7490;63.708;20.368;2024-01-30T14:03:14;0.70;99.90
14798;DHT22;7490;63.708;20.368;2024-01-30T14:05:40;0.70;99.90
14798;DHT22;7490;63.708;20.368;2024-01-30T14:08:06;0.60;99.90
14798;DHT22;7490;63.708;20.368;2024-01-30T14:10:32;0.50;99.90
14798;DHT22;7490;63.708;20.368;2024-01-30T14:12:58;0.50;99.90
14798;DHT22;7490;63.708;20.368;2024-01-30T14:15:24;0.40;99.90
14798;DHT22;7490;63.708;20.368;2024-01-30T14:17:49;0.40;99.90
14798;DHT22;7490;63.708;20.368;2024-01-30T14:20:16;0.40;99.90
14798;DHT22;7490;63.708;20.368;2024-01-30T14:22:44;0.40;99.90
14798;DHT22;7490;63.708;20.368;2024-01-30T14:25:10;0.40;99.90
14798;DHT22;7490;63.708;20.368;2024-01-30T14:27:36;0.40;99.90
14798;DHT22;7490;63.708;20.368;2024-01-30T14:30:02;0.40;99.90
14798;DHT22;7490;63.708;20.368;2024-01-30T14:32:28;0.40;99.90
14798;DHT22;7490;63.708;20.368;2024-01-30T14:34:54;0.40;99.90
14798;DHT22;7490;63.708;20.368;2024-01-30T14:37:23;0.40;99.90
14798;DHT22;7490;63.708;20.368;2024-01-30T14:39:49;0.30;99.90
14798;DHT22;7490;63.708;20.368;2024-01-30T14:42:15;0.20;99.90
14798;DHT22;7490;63.708;20.368;2024-01-30T14:44:41;0.20;99.90
14798;DHT22;7490;63.708;20.368;2024-01-30T14:47:07;0.20;99.90
14798;DHT22;7490;63.708;20.368;2024-01-30T14:49:34;0.10;99.90
14798;DHT22;7490;63.708;20.368;2024-01-30T14:51:59;0.10;99.90
14798;DHT22;7490;63.708;20.368;2024-01-30T14:54:26;0.10;99.90
14798;DHT22;7490;63.708;20.368;2024-01-30T14:56:52;0.10;99.90
14798;DHT22;7490;63.708;20.368;2024-01-30T14:59:17;0.10;99.90
14798;DHT22;7490;63.708;20.368;2024-01-30T15:01:43;0.00;99.90
14798;DHT22;7490;63.708;20.368;2024-01-30T15:04:10;0.00;99.90
14798;DHT22;7490;63.708;20.368;2024-01-30T15:06:36;0.00;99.90
14798;DHT22;7490;63.708;20.368;2024-01-30T15:09:02;0.00;99.90
14798;DHT22;7490;63.708;20.368;2024-01-30T15:11:28;0.00;99.90
14798;DHT22;7490;63.708;20.368;2024-01-30T15:13:54;0.00;99.90
14798;DHT22;7490;63.708;20.368;2024-01-30T15:16:19;0.00;99.90
14798;DHT22;7490;63.708;20.368;2024-01-30T15:18:45;0.00;99.90
14798;DHT22;7490;63.708;20.368;2024-01-30T15:21:10;-0.10;99.90
14798;DHT22;7490;63.708;20.368;2024-01-30T15:23:36;-0.10;99.90
14798;DHT22;7490;63.708;20.368;2024-01-30T15:26:02;-0.10;99.90
14798;DHT22;7490;63.708;20.368;2024-01-30T15:28:38;-0.10;99.90
14798;DHT22;7490;63.708;20.368;2024-01-30T15:31:04;-0.10;99.90
14798;DHT22;7490;63.708;20.368;2024-01-30T15:33:30;-0.20;99.90
14798;DHT22;7490;63.708;20.368;2024-01-30T15:35:57;-0.20;99.90
14798;DHT22;7490;63.708;20.368;2024-01-30T15:38:23;-0.20;99.90
14798;DHT22;7490;63.708;20.368;2024-01-30T15:40:49;-0.20;99.90